sensor_id;sensor_type;location;lat;lon;timestamp;P1;durP1;ratioP1;P2;durP2;ratioP2
12896;SDS011;6516;35.028;32.372;2023-10-09T00:02:45;16.88;;;11.05;;
12896;SDS011;6516;35.028;32.372;2023-10-09T00:05:13;16.00;;;10.75;;
12896;SDS011;6516;35.028;32.372;2023-10-09T00:07:48;16.38;;;10.77;;
12896;SDS011;6516;35.028;32.372;2023-10-09T00:10:21;17.30;;;10.98;;
12896;SDS011;6516;35.028;32.372;2023-10-09T00:12:50;17.47;;;10.97;;
12896;SDS011;6516;35.028;32.372;2023-10-09T00:15:17;19.33;;;10.85;;
12896;SDS011;6516;35.028;32.372;2023-10-09T00:17:47;16.08;;;10.40;;
12896;SDS011;6516;35.028;32.372;2023-10-09T00:20:16;18.55;;;10.98;;
12896;SDS011;6516;35.028;32.372;2023-10-09T00:22:49;18.02;;;10.75;;
12896;SDS011;6516;35.028;32.372;2023-10-09T00:25:17;18.03;;;10.80;;
12896;SDS011;6516;35.028;32.372;2023-10-09T00:27:54;17.67;;;10.73;;
12896;SDS011;6516;35.028;32.372;2023-10-09T00:30:25;16.48;;;10.70;;
12896;SDS011;6516;35.028;32.372;2023-10-09T00:32:56;16.92;;;11.38;;
12896;SDS011;6516;35.028;32.372;2023-10-09T00:35:29;16.95;;;11.15;;
12896;SDS011;6516;35.028;32.372;2023-10-09T00:38:02;17.90;;;11.10;;
12896;SDS011;6516;35.028;32.372;2023-10-09T00:40:41;20.27;;;10.90;;
12896;SDS011;6516;35.028;32.372;2023-10-09T00:43:12;17.17;;;10.55;;
12896;SDS011;6516;35.028;32.372;2023-10-09T00:45:40;16.70;;;10.50;;
12896;SDS011;6516;35.028;32.372;2023-10-09T00:48:11;17.25;;;10.32;;
12896;SDS011;6516;35.028;32.372;2023-10-09T00:50:48;17.20;;;10.30;;
12896;SDS011;6516;35.028;32.372;2023-10-09T00:53:19;16.02;;;10.90;;
12896;SDS011;6516;35.028;32.372;2023-10-09T00:55:56;17.17;;;11.40;;
12896;SDS011;6516;35.028;32.372;2023-10-09T00:58:36;15.93;;;10.55;;
12896;SDS011;6516;35.028;32.372;2023-10-09T01:01:05;18.05;;;11.10;;
12896;SDS011;6516;35.028;32.372;2023-10-09T01:03:42;17.60;;;11.10;;
12896;SDS011;6516;35.028;32.372;2023-10-09T01:06:10;18.52;;;11.40;;
12896;SDS011;6516;35.028;32.372;2023-10-09T01:08:46;15.77;;;10.50;;
12896;SDS011;6516;35.028;32.372;2023-10-09T01:11:32;17.00;;;11.05;;
12896;SDS011;6516;35.028;32.372;2023-10-09T01:14:12;16.58;;;10.18;;
12896;SDS011;6516;35.028;32.372;2023-10-09T01:16:40;15.07;;;10.27;;
12896;SDS011;6516;35.028;32.372;2023-10-09T01:19:10;18.25;;;11.18;;
12896;SDS011;6516;35.028;32.372;2023-10-09T01:21:49;17.88;;;10.85;;
12896;SDS011;6516;35.028;32.372;2023-10-09T01:24:18;16.10;;;10.93;;
12896;SDS011;6516;35.028;32.372;2023-10-09T01:26:48;16.20;;;10.63;;
12896;SDS011;6516;35.028;32.372;2023-10-09T01:29:19;17.10;;;11.20;;
12896;SDS011;6516;35.028;32.372;2023-10-09T01:31:49;17.17;;;11.20;;
12896;SDS011;6516;35.028;32.372;2023-10-09T01:34:20;17.67;;;11.30;;
12896;SDS011;6516;35.028;32.372;2023-10-09T01:36:51;18.17;;;10.95;;
12896;SDS011;6516;35.028;32.372;2023-10-09T01:39:23;16.25;;;10.50;;
12896;SDS011;6516;35.028;32.372;2023-10-09T01:41:52;17.53;;;11.80;;
12896;SDS011;6516;35.028;32.372;2023-10-09T01:44:25;15.80;;;10.98;;
12896;SDS011;6516;35.028;32.372;2023-10-09T01:47:00;16.25;;;11.00;;
12896;SDS011;6516;35.028;32.372;2023-10-09T01:49:32;16.42;;;10.98;;
12896;SDS011;6516;35.028;32.372;2023-10-09T01:52:02;17.30;;;11.00;;
12896;SDS011;6516;35.028;32.372;2023-10-09T01:54:37;17.03;;;10.90;;
12896;SDS011;6516;35.028;32.372;2023-10-09T01:57:07;18.85;;;11.57;;
12896;SDS011;6516;35.028;32.372;2023-10-09T01:59:38;16.50;;;11.25;;
12896;SDS011;6516;35.028;32.372;2023-10-09T02:02:10;18.33;;;11.18;;
12896;SDS011;6516;35.028;32.372;2023-10-09T02:04:50;17.95;;;11.00;;
12896;SDS011;6516;35.028;32.372;2023-10-09T02:07:20;16.53;;;11.13;;
12896;SDS011;6516;35.028;32.372;2023-10-09T02:09:54;16.63;;;10.88;;
12896;SDS011;6516;35.028;32.372;2023-10-09T02:12:22;16.88;;;11.05;;
12896;SDS011;6516;35.028;32.372;2023-10-09T02:14:52;17.95;;;10.90;;
12896;SDS011;6516;35.028;32.372;2023-10-09T02:17:21;18.77;;;11.50;;
12896;SDS011;6516;35.028;32.372;2023-10-09T02:19:54;18.33;;;11.47;;
12896;SDS011;6516;35.028;32.372;2023-10-09T02:22:22;17.63;;;10.38;;
12896;SDS011;6516;35.028;32.372;2023-10-09T02:24:52;17.23;;;10.73;;
12896;SDS011;6516;35.028;32.372;2023-10-09T02:27:29;17.92;;;10.90;;
12896;SDS011;6516;35.028;32.372;2023-10-09T02:30:11;16.33;;;10.73;;
12896;SDS011;6516;35.028;32.372;2023-10-09T02:32:43;16.10;;;10.87;;
12896;SDS011;6516;35.028;32.372;2023-10-09T02:35:17;17.23;;;10.68;;
12896;SDS011;6516;35.028;32.372;2023-10-09T02:38:03;20.55;;;11.32;;
12896;SDS011;6516;35.028;32.372;2023-10-09T02:40:40;16.13;;;10.93;;
12896;SDS011;6516;35.028;32.372;2023-10-09T02:43:30;17.15;;;10.77;;
12896;SDS011;6516;35.028;32.372;2023-10-09T02:46:09;17.03;;;11.30;;
12896;SDS011;6516;35.028;32.372;2023-10-09T02:48:40;16.10;;;11.00;;
12896;SDS011;6516;35.028;32.372;2023-10-09T02:51:12;18.23;;;10.60;;
12896;SDS011;6516;35.028;32.372;2023-10-09T02:53:56;17.10;;;10.48;;
12896;SDS011;6516;35.028;32.372;2023-10-09T02:56:25;17.63;;;10.77;;
12896;SDS011;6516;35.028;32.372;2023-10-09T02:59:03;16.70;;;10.73;;
12896;SDS011;6516;35.028;32.372;2023-10-09T03:01:34;15.70;;;10.20;;
12896;SDS011;6516;35.028;32.372;2023-10-09T03:04:03;18.48;;;10.98;;
12896;SDS011;6516;35.028;32.372;2023-10-09T03:06:31;16.67;;;10.75;;
12896;SDS011;6516;35.028;32.372;2023-10-09T03:09:00;16.58;;;10.35;;
12896;SDS011;6516;35.028;32.372;2023-10-09T03:11:44;17.57;;;10.77;;
12896;SDS011;6516;35.028;32.372;2023-10-09T03:14:20;16.67;;;10.77;;
12896;SDS011;6516;35.028;32.372;2023-10-09T03:16:51;15.90;;;10.82;;
12896;SDS011;6516;35.028;32.372;2023-10-09T03:19:19;14.50;;;10.23;;
12896;SDS011;6516;35.028;32.372;2023-10-09T03:21:47;15.25;;;10.68;;
12896;SDS011;6516;35.028;32.372;2023-10-09T03:24:15;15.27;;;10.57;;
12896;SDS011;6516;35.028;32.372;2023-10-09T03:26:45;14.55;;;9.43;;
12896;SDS011;6516;35.028;32.372;2023-10-09T03:29:13;15.30;;;10.65;;
12896;SDS011;6516;35.028;32.372;2023-10-09T03:31:46;14.73;;;9.90;;
12896;SDS011;6516;35.028;32.372;2023-10-09T03:34:15;15.77;;;10.40;;
12896;SDS011;6516;35.028;32.372;2023-10-09T03:36:45;21.53;;;13.03;;
12896;SDS011;6516;35.028;32.372;2023-10-09T03:39:13;15.57;;;10.63;;
12896;SDS011;6516;35.028;32.372;2023-10-09T03:41:55;16.30;;;10.88;;
12896;SDS011;6516;35.028;32.372;2023-10-09T03:44:23;17.08;;;11.25;;
12896;SDS011;6516;35.028;32.372;2023-10-09T03:46:55;18.10;;;11.40;;
12896;SDS011;6516;35.028;32.372;2023-10-09T03:49:23;17.60;;;11.07;;
12896;SDS011;6516;35.028;32.372;2023-10-09T03:51:52;17.17;;;10.75;;
12896;SDS011;6516;35.028;32.372;2023-10-09T03:54:20;16.25;;;10.88;;
12896;SDS011;6516;35.028;32.372;2023-10-09T03:56:49;19.42;;;11.32;;
12896;SDS011;6516;35.028;32.372;2023-10-09T03:59:20;16.75;;;11.25;;
12896;SDS011;6516;35.028;32.372;2023-10-09T04:01:48;16.73;;;11.40;;
12896;SDS011;6516;35.028;32.372;2023-10-09T04:04:19;16.10;;;10.82;;
12896;SDS011;6516;35.028;32.372;2023-10-09T04:06:48;15.95;;;10.73;;
12896;SDS011;6516;35.028;32.372;2023-10-09T04:09:17;16.02;;;10.85;;
12896;SDS011;6516;35.028;32.372;2023-10-09T04:12:01;16.15;;;10.77;;
12896;SDS011;6516;35.028;32.372;2023-10-09T04:14:50;20.37;;;10.90;;
12896;SDS011;6516;35.028;32.372;2023-10-09T04:17:20;16.25;;;11.00;;
12896;SDS011;6516;35.028;32.372;2023-10-09T04:20:01;17.83;;;11.50;;
12896;SDS011;6516;35.028;32.372;2023-10-09T04:22:48;18.15;;;10.50;;
12896;SDS011;6516;35.028;32.372;2023-10-09T04:25:25;15.80;;;10.75;;
12896;SDS011;6516;35.028;32.372;2023-10-09T04:27:54;15.47;;;10.47;;
12896;SDS011;6516;35.028;32.372;2023-10-09T04:30:34;19.60;;;10.70;;
12896;SDS011;6516;35.028;32.372;2023-10-09T04:33:05;15.82;;;10.88;;
12896;SDS011;6516;35.028;32.372;2023-10-09T04:35:38;16.95;;;10.73;;
12896;SDS011;6516;35.028;32.372;2023-10-09T04:38:11;16.33;;;10.82;;
12896;SDS011;6516;35.028;32.372;2023-10-09T04:40:38;15.77;;;10.23;;
12896;SDS011;6516;35.028;32.372;2023-10-09T04:43:19;15.95;;;10.38;;
12896;SDS011;6516;35.028;32.372;2023-10-09T04:45:46;16.10;;;10.52;;
12896;SDS011;6516;35.028;32.372;2023-10-09T04:48:32;16.23;;;10.27;;
12896;SDS011;6516;35.028;32.372;2023-10-09T04:51:05;16.60;;;10.27;;
12896;SDS011;6516;35.028;32.372;2023-10-09T04:53:59;14.50;;;9.87;;
12896;SDS011;6516;35.028;32.372;2023-10-09T04:56:38;16.25;;;10.45;;
12896;SDS011;6516;35.028;32.372;2023-10-09T04:59:18;15.40;;;9.65;;
12896;SDS011;6516;35.028;32.372;2023-10-09T05:01:50;16.15;;;10.25;;
12896;SDS011;6516;35.028;32.372;2023-10-09T05:04:24;14.65;;;9.85;;
12896;SDS011;6516;35.028;32.372;2023-10-09T05:07:08;15.17;;;9.77;;
12896;SDS011;6516;35.028;32.372;2023-10-09T05:09:48;16.42;;;9.95;;
12896;SDS011;6516;35.028;32.372;2023-10-09T05:12:35;14.75;;;9.45;;
12896;SDS011;6516;35.028;32.372;2023-10-09T05:15:11;16.50;;;9.50;;
12896;SDS011;6516;35.028;32.372;2023-10-09T05:17:40;15.27;;;9.98;;
12896;SDS011;6516;35.028;32.372;2023-10-09T05:20:17;13.97;;;9.17;;
12896;SDS011;6516;35.028;32.372;2023-10-09T05:23:18;15.07;;;9.30;;
12896;SDS011;6516;35.028;32.372;2023-10-09T05:25:52;17.58;;;9.15;;
12896;SDS011;6516;35.028;32.372;2023-10-09T05:28:24;14.75;;;9.23;;
12896;SDS011;6516;35.028;32.372;2023-10-09T05:30:56;12.95;;;8.82;;
12896;SDS011;6516;35.028;32.372;2023-10-09T05:33:33;14.13;;;9.13;;
12896;SDS011;6516;35.028;32.372;2023-10-09T05:36:02;15.73;;;9.20;;
12896;SDS011;6516;35.028;32.372;2023-10-09T05:38:50;13.73;;;8.80;;
12896;SDS011;6516;35.028;32.372;2023-10-09T05:41:43;13.63;;;8.55;;
12896;SDS011;6516;35.028;32.372;2023-10-09T05:44:18;16.75;;;9.60;;
12896;SDS011;6516;35.028;32.372;2023-10-09T05:47:03;17.30;;;9.63;;
12896;SDS011;6516;35.028;32.372;2023-10-09T05:49:44;14.50;;;9.00;;
12896;SDS011;6516;35.028;32.372;2023-10-09T05:52:20;14.05;;;9.13;;
12896;SDS011;6516;35.028;32.372;2023-10-09T05:55:10;13.38;;;8.68;;
12896;SDS011;6516;35.028;32.372;2023-10-09T05:58:07;14.70;;;8.98;;
12896;SDS011;6516;35.028;32.372;2023-10-09T06:00:52;15.17;;;8.80;;
12896;SDS011;6516;35.028;32.372;2023-10-09T06:03:53;13.93;;;8.75;;
12896;SDS011;6516;35.028;32.372;2023-10-09T06:06:19;14.27;;;8.32;;
12896;SDS011;6516;35.028;32.372;2023-10-09T06:09:08;15.43;;;9.20;;
12896;SDS011;6516;35.028;32.372;2023-10-09T06:11:59;13.32;;;7.88;;
12896;SDS011;6516;35.028;32.372;2023-10-09T06:14:43;15.67;;;8.70;;
12896;SDS011;6516;35.028;32.372;2023-10-09T06:17:43;13.32;;;7.85;;
12896;SDS011;6516;35.028;32.372;2023-10-09T06:20:15;13.70;;;8.30;;
12896;SDS011;6516;35.028;32.372;2023-10-09T06:23:03;13.27;;;7.93;;
12896;SDS011;6516;35.028;32.372;2023-10-09T06:25:42;15.63;;;8.23;;
12896;SDS011;6516;35.028;32.372;2023-10-09T06:28:18;14.40;;;8.20;;
12896;SDS011;6516;35.028;32.372;2023-10-09T06:30:58;13.50;;;8.50;;
12896;SDS011;6516;35.028;32.372;2023-10-09T06:33:46;14.82;;;8.65;;
12896;SDS011;6516;35.028;32.372;2023-10-09T06:36:33;13.13;;;8.23;;
12896;SDS011;6516;35.028;32.372;2023-10-09T06:39:00;14.35;;;8.27;;
12896;SDS011;6516;35.028;32.372;2023-10-09T06:41:41;12.80;;;7.97;;
12896;SDS011;6516;35.028;32.372;2023-10-09T06:44:12;16.83;;;8.82;;
12896;SDS011;6516;35.028;32.372;2023-10-09T06:47:00;24.60;;;9.30;;
12896;SDS011;6516;35.028;32.372;2023-10-09T06:49:33;36.75;;;11.07;;
12896;SDS011;6516;35.028;32.372;2023-10-09T06:52:03;15.05;;;8.18;;
12896;SDS011;6516;35.028;32.372;2023-10-09T06:54:44;13.00;;;7.40;;
12896;SDS011;6516;35.028;32.372;2023-10-09T06:57:17;12.02;;;7.20;;
12896;SDS011;6516;35.028;32.372;2023-10-09T07:00:00;15.40;;;7.32;;
12896;SDS011;6516;35.028;32.372;2023-10-09T07:02:45;11.32;;;6.47;;
12896;SDS011;6516;35.028;32.372;2023-10-09T07:05:13;12.27;;;7.18;;
12896;SDS011;6516;35.028;32.372;2023-10-09T07:07:43;12.57;;;6.70;;
12896;SDS011;6516;35.028;32.372;2023-10-09T07:10:20;11.27;;;6.97;;
12896;SDS011;6516;35.028;32.372;2023-10-09T07:12:59;11.43;;;7.25;;
12896;SDS011;6516;35.028;32.372;2023-10-09T07:15:30;10.60;;;6.70;;
12896;SDS011;6516;35.028;32.372;2023-10-09T07:18:12;11.88;;;6.68;;
12896;SDS011;6516;35.028;32.372;2023-10-09T07:20:48;12.27;;;7.17;;
12896;SDS011;6516;35.028;32.372;2023-10-09T07:23:27;12.98;;;7.00;;
12896;SDS011;6516;35.028;32.372;2023-10-09T07:26:05;13.23;;;6.28;;
12896;SDS011;6516;35.028;32.372;2023-10-09T07:28:48;10.93;;;6.68;;
12896;SDS011;6516;35.028;32.372;2023-10-09T07:31:27;12.40;;;6.82;;
12896;SDS011;6516;35.028;32.372;2023-10-09T07:34:04;28.87;;;8.97;;
12896;SDS011;6516;35.028;32.372;2023-10-09T07:36:54;21.08;;;8.23;;
12896;SDS011;6516;35.028;32.372;2023-10-09T07:39:23;14.15;;;6.95;;
12896;SDS011;6516;35.028;32.372;2023-10-09T07:41:59;11.45;;;7.43;;
12896;SDS011;6516;35.028;32.372;2023-10-09T07:44:41;12.82;;;6.63;;
12896;SDS011;6516;35.028;32.372;2023-10-09T07:47:19;10.80;;;6.80;;
12896;SDS011;6516;35.028;32.372;2023-10-09T07:50:08;11.13;;;6.85;;
12896;SDS011;6516;35.028;32.372;2023-10-09T07:52:46;11.60;;;6.65;;
12896;SDS011;6516;35.028;32.372;2023-10-09T07:55:15;12.07;;;7.00;;
12896;SDS011;6516;35.028;32.372;2023-10-09T07:57:55;10.52;;;6.90;;
12896;SDS011;6516;35.028;32.372;2023-10-09T08:00:22;11.57;;;7.20;;
12896;SDS011;6516;35.028;32.372;2023-10-09T08:03:33;11.52;;;6.78;;
12896;SDS011;6516;35.028;32.372;2023-10-09T08:06:01;14.05;;;8.00;;
12896;SDS011;6516;35.028;32.372;2023-10-09T08:08:54;11.60;;;7.38;;
12896;SDS011;6516;35.028;32.372;2023-10-09T08:11:35;11.88;;;7.10;;
12896;SDS011;6516;35.028;32.372;2023-10-09T08:14:24;12.07;;;7.30;;
12896;SDS011;6516;35.028;32.372;2023-10-09T08:17:10;11.27;;;7.07;;
12896;SDS011;6516;35.028;32.372;2023-10-09T08:19:43;12.70;;;7.13;;
12896;SDS011;6516;35.028;32.372;2023-10-09T08:22:26;11.77;;;6.85;;
12896;SDS011;6516;35.028;32.372;2023-10-09T08:25:15;12.77;;;7.25;;
12896;SDS011;6516;35.028;32.372;2023-10-09T08:27:58;11.90;;;7.40;;
12896;SDS011;6516;35.028;32.372;2023-10-09T08:30:45;12.02;;;7.25;;
12896;SDS011;6516;35.028;32.372;2023-10-09T08:33:28;12.45;;;7.32;;
12896;SDS011;6516;35.028;32.372;2023-10-09T08:36:09;15.65;;;7.88;;
12896;SDS011;6516;35.028;32.372;2023-10-09T08:38:40;14.43;;;7.30;;
12896;SDS011;6516;35.028;32.372;2023-10-09T08:41:08;14.70;;;7.83;;
12896;SDS011;6516;35.028;32.372;2023-10-09T08:43:47;11.90;;;7.70;;
12896;SDS011;6516;35.028;32.372;2023-10-09T08:46:20;13.13;;;7.90;;
12896;SDS011;6516;35.028;32.372;2023-10-09T08:48:52;13.75;;;7.70;;
12896;SDS011;6516;35.028;32.372;2023-10-09T08:51:23;13.48;;;6.97;;
12896;SDS011;6516;35.028;32.372;2023-10-09T08:53:52;12.43;;;6.87;;
12896;SDS011;6516;35.028;32.372;2023-10-09T08:56:20;12.45;;;7.50;;
12896;SDS011;6516;35.028;32.372;2023-10-09T08:58:52;11.20;;;6.78;;
12896;SDS011;6516;35.028;32.372;2023-10-09T09:01:22;13.85;;;7.70;;
12896;SDS011;6516;35.028;32.372;2023-10-09T09:03:51;12.93;;;6.97;;
12896;SDS011;6516;35.028;32.372;2023-10-09T09:06:23;10.80;;;6.77;;
12896;SDS011;6516;35.028;32.372;2023-10-09T09:08:51;12.25;;;7.20;;
12896;SDS011;6516;35.028;32.372;2023-10-09T09:11:24;11.18;;;7.00;;
12896;SDS011;6516;35.028;32.372;2023-10-09T09:14:02;12.60;;;7.40;;
12896;SDS011;6516;35.028;32.372;2023-10-09T09:16:36;11.93;;;7.07;;
12896;SDS011;6516;35.028;32.372;2023-10-09T09:19:13;12.80;;;7.43;;
12896;SDS011;6516;35.028;32.372;2023-10-09T09:21:49;11.93;;;7.20;;
12896;SDS011;6516;35.028;32.372;2023-10-09T09:24:19;11.95;;;7.50;;
12896;SDS011;6516;35.028;32.372;2023-10-09T09:26:52;12.68;;;7.15;;
12896;SDS011;6516;35.028;32.372;2023-10-09T09:29:37;11.48;;;6.95;;
12896;SDS011;6516;35.028;32.372;2023-10-09T09:32:07;13.57;;;7.33;;
12896;SDS011;6516;35.028;32.372;2023-10-09T09:34:45;12.32;;;7.30;;
12896;SDS011;6516;35.028;32.372;2023-10-09T09:37:20;10.65;;;6.82;;
12896;SDS011;6516;35.028;32.372;2023-10-09T09:39:54;11.80;;;7.22;;
12896;SDS011;6516;35.028;32.372;2023-10-09T09:42:26;12.38;;;7.13;;
12896;SDS011;6516;35.028;32.372;2023-10-09T09:44:57;12.00;;;7.00;;
12896;SDS011;6516;35.028;32.372;2023-10-09T09:47:29;11.10;;;6.80;;
12896;SDS011;6516;35.028;32.372;2023-10-09T09:50:01;13.52;;;7.32;;
12896;SDS011;6516;35.028;32.372;2023-10-09T09:52:39;14.55;;;7.82;;
12896;SDS011;6516;35.028;32.372;2023-10-09T09:55:07;15.30;;;8.35;;
12896;SDS011;6516;35.028;32.372;2023-10-09T09:57:41;12.33;;;7.50;;
12896;SDS011;6516;35.028;32.372;2023-10-09T10:00:16;11.75;;;7.45;;
12896;SDS011;6516;35.028;32.372;2023-10-09T10:02:57;12.48;;;7.15;;
12896;SDS011;6516;35.028;32.372;2023-10-09T10:05:30;12.05;;;7.45;;
12896;SDS011;6516;35.028;32.372;2023-10-09T10:08:02;13.50;;;7.68;;
12896;SDS011;6516;35.028;32.372;2023-10-09T10:10:38;11.77;;;7.23;;
12896;SDS011;6516;35.028;32.372;2023-10-09T10:13:15;13.18;;;8.32;;
12896;SDS011;6516;35.028;32.372;2023-10-09T10:18:52;13.75;;;7.82;;
12896;SDS011;6516;35.028;32.372;2023-10-09T10:21:25;13.57;;;7.10;;
12896;SDS011;6516;35.028;32.372;2023-10-09T10:27:22;12.63;;;7.72;;
12896;SDS011;6516;35.028;32.372;2023-10-09T10:33:08;13.07;;;8.23;;
12896;SDS011;6516;35.028;32.372;2023-10-09T10:35:39;14.60;;;8.02;;
12896;SDS011;6516;35.028;32.372;2023-10-09T10:41:12;14.15;;;7.88;;
12896;SDS011;6516;35.028;32.372;2023-10-09T10:43:47;12.20;;;8.13;;
12896;SDS011;6516;35.028;32.372;2023-10-09T10:46:25;14.23;;;7.93;;
12896;SDS011;6516;35.028;32.372;2023-10-09T10:49:07;13.57;;;7.63;;
12896;SDS011;6516;35.028;32.372;2023-10-09T10:51:46;16.83;;;7.93;;
12896;SDS011;6516;35.028;32.372;2023-10-09T10:54:26;13.60;;;7.32;;
12896;SDS011;6516;35.028;32.372;2023-10-09T10:57:17;14.57;;;7.70;;
12896;SDS011;6516;35.028;32.372;2023-10-09T10:59:54;12.23;;;7.50;;
12896;SDS011;6516;35.028;32.372;2023-10-09T11:02:59;15.23;;;7.90;;
12896;SDS011;6516;35.028;32.372;2023-10-09T11:05:41;11.10;;;6.80;;
12896;SDS011;6516;35.028;32.372;2023-10-09T11:08:16;14.60;;;7.32;;
12896;SDS011;6516;35.028;32.372;2023-10-09T11:10:52;24.80;;;7.75;;
12896;SDS011;6516;35.028;32.372;2023-10-09T11:13:42;22.33;;;7.90;;
12896;SDS011;6516;35.028;32.372;2023-10-09T11:16:19;13.43;;;6.93;;
12896;SDS011;6516;35.028;32.372;2023-10-09T11:19:07;13.40;;;6.87;;
12896;SDS011;6516;35.028;32.372;2023-10-09T11:21:49;12.05;;;6.50;;
12896;SDS011;6516;35.028;32.372;2023-10-09T11:24:25;10.70;;;6.55;;
12896;SDS011;6516;35.028;32.372;2023-10-09T11:26:58;12.48;;;6.78;;
12896;SDS011;6516;35.028;32.372;2023-10-09T11:29:32;11.50;;;6.70;;
12896;SDS011;6516;35.028;32.372;2023-10-09T11:32:14;10.80;;;6.30;;
12896;SDS011;6516;35.028;32.372;2023-10-09T11:34:44;12.65;;;7.07;;
12896;SDS011;6516;35.028;32.372;2023-10-09T11:37:17;21.08;;;7.05;;
12896;SDS011;6516;35.028;32.372;2023-10-09T11:40:04;14.30;;;7.13;;
12896;SDS011;6516;35.028;32.372;2023-10-09T11:42:48;18.38;;;7.00;;
12896;SDS011;6516;35.028;32.372;2023-10-09T11:45:21;11.27;;;7.30;;
12896;SDS011;6516;35.028;32.372;2023-10-09T11:47:54;11.10;;;7.28;;
12896;SDS011;6516;35.028;32.372;2023-10-09T11:50:40;12.02;;;7.35;;
12896;SDS011;6516;35.028;32.372;2023-10-09T11:53:16;11.23;;;7.32;;
12896;SDS011;6516;35.028;32.372;2023-10-09T11:55:58;12.32;;;8.38;;
12896;SDS011;6516;35.028;32.372;2023-10-09T11:58:27;13.23;;;8.70;;
12896;SDS011;6516;35.028;32.372;2023-10-09T12:00:55;11.63;;;7.97;;
12896;SDS011;6516;35.028;32.372;2023-10-09T12:03:28;19.15;;;8.73;;
12896;SDS011;6516;35.028;32.372;2023-10-09T12:05:57;18.35;;;8.43;;
12896;SDS011;6516;35.028;32.372;2023-10-09T12:08:29;12.60;;;7.75;;
12896;SDS011;6516;35.028;32.372;2023-10-09T12:10:58;14.70;;;8.07;;
12896;SDS011;6516;35.028;32.372;2023-10-09T12:13:33;18.98;;;9.10;;
12896;SDS011;6516;35.028;32.372;2023-10-09T12:16:04;13.73;;;8.30;;
12896;SDS011;6516;35.028;32.372;2023-10-09T12:18:35;23.58;;;9.77;;
12896;SDS011;6516;35.028;32.372;2023-10-09T12:21:04;23.67;;;9.05;;
12896;SDS011;6516;35.028;32.372;2023-10-09T12:23:32;15.33;;;8.80;;
12896;SDS011;6516;35.028;32.372;2023-10-09T12:26:01;14.50;;;8.65;;
12896;SDS011;6516;35.028;32.372;2023-10-09T12:28:29;11.85;;;8.18;;
12896;SDS011;6516;35.028;32.372;2023-10-09T12:30:58;11.65;;;7.95;;
12896;SDS011;6516;35.028;32.372;2023-10-09T12:33:29;14.15;;;8.32;;
12896;SDS011;6516;35.028;32.372;2023-10-09T12:35:57;11.60;;;7.90;;
12896;SDS011;6516;35.028;32.372;2023-10-09T12:38:26;12.93;;;8.38;;
12896;SDS011;6516;35.028;32.372;2023-10-09T12:41:04;13.88;;;8.18;;
12896;SDS011;6516;35.028;32.372;2023-10-09T12:43:44;13.60;;;7.75;;
12896;SDS011;6516;35.028;32.372;2023-10-09T12:46:12;12.50;;;8.13;;
12896;SDS011;6516;35.028;32.372;2023-10-09T12:48:43;25.43;;;8.90;;
12896;SDS011;6516;35.028;32.372;2023-10-09T12:51:12;12.77;;;8.10;;
12896;SDS011;6516;35.028;32.372;2023-10-09T12:53:42;13.35;;;8.50;;
12896;SDS011;6516;35.028;32.372;2023-10-09T12:56:10;14.32;;;8.15;;
12896;SDS011;6516;35.028;32.372;2023-10-09T12:58:40;11.60;;;8.02;;
12896;SDS011;6516;35.028;32.372;2023-10-09T13:01:17;12.63;;;8.20;;
12896;SDS011;6516;35.028;32.372;2023-10-09T13:03:47;14.10;;;8.32;;
12896;SDS011;6516;35.028;32.372;2023-10-09T13:06:15;15.27;;;7.70;;
12896;SDS011;6516;35.028;32.372;2023-10-09T13:08:49;11.82;;;7.45;;
12896;SDS011;6516;35.028;32.372;2023-10-09T13:11:17;13.13;;;8.25;;
12896;SDS011;6516;35.028;32.372;2023-10-09T13:13:45;12.77;;;8.03;;
12896;SDS011;6516;35.028;32.372;2023-10-09T13:16:16;15.70;;;8.85;;
12896;SDS011;6516;35.028;32.372;2023-10-09T13:18:50;14.70;;;8.32;;
12896;SDS011;6516;35.028;32.372;2023-10-09T13:21:18;13.00;;;8.05;;
12896;SDS011;6516;35.028;32.372;2023-10-09T13:23:46;13.23;;;8.02;;
12896;SDS011;6516;35.028;32.372;2023-10-09T13:26:15;15.03;;;8.00;;
12896;SDS011;6516;35.028;32.372;2023-10-09T13:28:49;12.77;;;7.70;;
12896;SDS011;6516;35.028;32.372;2023-10-09T13:31:18;11.93;;;8.18;;
12896;SDS011;6516;35.028;32.372;2023-10-09T13:33:50;15.77;;;8.70;;
12896;SDS011;6516;35.028;32.372;2023-10-09T13:36:19;14.10;;;8.02;;
12896;SDS011;6516;35.028;32.372;2023-10-09T13:38:56;13.80;;;8.43;;
12896;SDS011;6516;35.028;32.372;2023-10-09T13:41:27;13.20;;;8.20;;
12896;SDS011;6516;35.028;32.372;2023-10-09T13:43:55;12.77;;;7.90;;
12896;SDS011;6516;35.028;32.372;2023-10-09T13:46:23;14.88;;;8.48;;
12896;SDS011;6516;35.028;32.372;2023-10-09T13:48:53;13.50;;;8.25;;
12896;SDS011;6516;35.028;32.372;2023-10-09T13:51:20;18.10;;;8.67;;
12896;SDS011;6516;35.028;32.372;2023-10-09T13:53:49;14.15;;;8.60;;
12896;SDS011;6516;35.028;32.372;2023-10-09T13:56:17;15.57;;;8.38;;
12896;SDS011;6516;35.028;32.372;2023-10-09T13:58:47;14.07;;;8.77;;
12896;SDS011;6516;35.028;32.372;2023-10-09T14:01:17;13.05;;;8.20;;
12896;SDS011;6516;35.028;32.372;2023-10-09T14:03:55;14.50;;;8.57;;
12896;SDS011;6516;35.028;32.372;2023-10-09T14:06:26;14.27;;;7.97;;
12896;SDS011;6516;35.028;32.372;2023-10-09T14:08:58;13.82;;;8.07;;
12896;SDS011;6516;35.028;32.372;2023-10-09T14:11:29;14.30;;;8.30;;
12896;SDS011;6516;35.028;32.372;2023-10-09T14:13:57;15.85;;;8.95;;
12896;SDS011;6516;35.028;32.372;2023-10-09T14:16:27;12.57;;;8.50;;
12896;SDS011;6516;35.028;32.372;2023-10-09T14:18:59;16.35;;;8.52;;
12896;SDS011;6516;35.028;32.372;2023-10-09T14:21:32;14.80;;;8.25;;
12896;SDS011;6516;35.028;32.372;2023-10-09T14:24:03;16.92;;;8.50;;
12896;SDS011;6516;35.028;32.372;2023-10-09T14:26:40;14.18;;;7.85;;
12896;SDS011;6516;35.028;32.372;2023-10-09T14:29:10;16.80;;;8.90;;
12896;SDS011;6516;35.028;32.372;2023-10-09T14:31:42;16.63;;;8.80;;
12896;SDS011;6516;35.028;32.372;2023-10-09T14:34:15;14.77;;;8.18;;
12896;SDS011;6516;35.028;32.372;2023-10-09T14:36:43;13.50;;;8.50;;
12896;SDS011;6516;35.028;32.372;2023-10-09T14:39:11;14.73;;;9.05;;
12896;SDS011;6516;35.028;32.372;2023-10-09T14:41:44;14.57;;;8.40;;
12896;SDS011;6516;35.028;32.372;2023-10-09T14:44:11;14.95;;;8.88;;
12896;SDS011;6516;35.028;32.372;2023-10-09T14:46:41;13.27;;;8.45;;
12896;SDS011;6516;35.028;32.372;2023-10-09T14:49:09;14.73;;;9.00;;
12896;SDS011;6516;35.028;32.372;2023-10-09T14:51:43;16.45;;;8.85;;
12896;SDS011;6516;35.028;32.372;2023-10-09T14:54:11;17.60;;;8.83;;
12896;SDS011;6516;35.028;32.372;2023-10-09T14:56:43;16.08;;;9.57;;
12896;SDS011;6516;35.028;32.372;2023-10-09T14:59:11;14.13;;;8.95;;
12896;SDS011;6516;35.028;32.372;2023-10-09T15:01:42;13.73;;;8.40;;
12896;SDS011;6516;35.028;32.372;2023-10-09T15:04:10;14.63;;;8.63;;
12896;SDS011;6516;35.028;32.372;2023-10-09T15:06:41;14.90;;;8.80;;
12896;SDS011;6516;35.028;32.372;2023-10-09T15:09:09;13.95;;;8.68;;
12896;SDS011;6516;35.028;32.372;2023-10-09T15:11:47;15.20;;;8.63;;
12896;SDS011;6516;35.028;32.372;2023-10-09T15:14:14;15.93;;;9.40;;
12896;SDS011;6516;35.028;32.372;2023-10-09T15:16:43;17.00;;;9.45;;
12896;SDS011;6516;35.028;32.372;2023-10-09T15:19:12;17.93;;;9.57;;
12896;SDS011;6516;35.028;32.372;2023-10-09T15:21:44;18.67;;;9.88;;
12896;SDS011;6516;35.028;32.372;2023-10-09T15:24:12;14.82;;;9.23;;
12896;SDS011;6516;35.028;32.372;2023-10-09T15:26:41;14.88;;;9.70;;
12896;SDS011;6516;35.028;32.372;2023-10-09T15:29:09;16.38;;;9.30;;